Forrest, Australia
Current Conditions -  °F | °C
As of 9:00 PM on Monday 20 Oct 2014 (Local Time) from YCDU Reporting Station
Clear Clear  
Wind Chill: 63°   Ceiling: Unl
Heat Index: 63°   Visibility: 6mi
Dew Point: 46°   Wind: 6mph
Humidity: 55%   Direction: 10°N
Pressure: 29.91"   Gusts: NA
Location:  30.83°S, 128.1°E
Report Text: YCDU 201300Z AUTO 01005KT 9999 // NCD 17/08 Q1013
Loading
Personal Weather Stations






























Interactive Weather Map
Tropical Storm Tracking
New forecast layout! Learn more

10-Day Weather Forecast

Advertisements
Track Severe Weather on mobile